Time;durP1;ratioP1;P1;durP2;ratioP2;P2;SDS_P1;SDS_P2;PMS_P1;PMS_P2;Temp;Humidity;BMP_temperature;BMP_pressure;BME280_temperature;BME280_humidity;BME280_pressure;Samples;Min_cycle;Max_cycle;Signal;HPM_P1;HPM_P2
2023/12/11 00:01:45;;;;;;;22.02;12.70;;;;;;;;;;6241607;28;20132;-73
2023/12/11 00:04:47;;;;;;;26.35;12.80;;;;;;;;;;6196983;28;20450;-73
2023/12/11 00:07:49;;;;;;;24.83;14.73;;;;;;;;;;6230495;28;20034;-73
2023/12/11 00:10:51;;;;;;;29.80;15.23;;;;;;;;;;6208724;28;20049;-73
2023/12/11 00:13:53;;;;;;;30.42;16.33;;;;;;;;;;6216982;28;20144;-73
2023/12/11 00:16:55;;;;;;;26.23;15.00;;;;;;;;;;6219177;28;20156;-72
2023/12/11 00:19:57;;;;;;;24.73;13.13;;;;;;;;;;6215815;28;20049;-73
2023/12/11 00:23:00;;;;;;;25.17;14.52;;;;;;;;;;6215904;28;20046;-73
2023/12/11 00:26:02;;;;;;;27.98;13.20;;;;;;;;;;6229119;28;20046;-73
2023/12/11 00:29:04;;;;;;;27.17;14.93;;;;;;;;;;6216295;28;20042;-73
2023/12/11 00:32:06;;;;;;;27.33;13.65;;;;;;;;;;6201930;28;20604;-73
2023/12/11 00:35:09;;;;;;;28.65;15.77;;;;;;;;;;6214827;28;20053;-73
2023/12/11 00:38:11;;;;;;;33.42;15.27;;;;;;;;;;6222910;28;20061;-73
2023/12/11 00:41:16;;;;;;;26.10;14.00;;;;;;;;;;6231865;28;20052;-73
2023/12/11 00:44:18;;;;;;;31.73;16.63;;;;;;;;;;6218323;28;20041;-73
2023/12/11 00:47:20;;;;;;;38.83;17.23;;;;;;;;;;6214177;28;21050;-72
2023/12/11 00:50:22;;;;;;;36.05;18.42;;;;;;;;;;6225945;28;20172;-73
2023/12/11 00:53:24;;;;;;;31.17;15.50;;;;;;;;;;6209584;28;20073;-73
2023/12/11 00:56:26;;;;;;;30.58;16.15;;;;;;;;;;6233342;28;20045;-73
2023/12/11 00:59:28;;;;;;;27.55;15.15;;;;;;;;;;6225769;28;20048;-72
2023/12/11 01:02:31;;;;;;;28.20;15.90;;;;;;;;;;6210883;28;20557;-73
2023/12/11 01:05:33;;;;;;;30.65;15.00;;;;;;;;;;6216358;28;20109;-73
2023/12/11 01:08:38;;;;;;;30.42;17.48;;;;;;;;;;6207740;28;20067;-73
2023/12/11 01:11:41;;;;;;;24.58;13.18;;;;;;;;;;6233409;28;20059;-73
2023/12/11 01:14:43;;;;;;;28.15;14.60;;;;;;;;;;6215751;28;20042;-73
2023/12/11 01:17:45;;;;;;;49.97;24.38;;;;;;;;;;6216006;28;20131;-73
2023/12/11 01:20:48;;;;;;;47.63;23.90;;;;;;;;;;6209610;28;20120;-73
2023/12/11 01:23:50;;;;;;;30.65;15.88;;;;;;;;;;6237479;28;20045;-73
2023/12/11 01:26:55;;;;;;;31.25;15.75;;;;;;;;;;6238216;28;20045;-73
2023/12/11 01:29:57;;;;;;;32.30;17.17;;;;;;;;;;6234402;28;20192;-72
2023/12/11 01:33:01;;;;;;;29.85;15.93;;;;;;;;;;6244953;28;20049;-73
2023/12/11 01:36:04;;;;;;;31.85;15.27;;;;;;;;;;6220049;28;20111;-73
2023/12/11 01:39:06;;;;;;;30.33;15.77;;;;;;;;;;6202186;28;20048;-73
2023/12/11 01:42:08;;;;;;;33.13;17.33;;;;;;;;;;6232859;28;20094;-72
2023/12/11 01:45:10;;;;;;;24.60;14.40;;;;;;;;;;6237176;28;20107;-71
2023/12/11 01:48:12;;;;;;;29.55;13.32;;;;;;;;;;6227867;28;20034;-71
2023/12/11 01:51:15;;;;;;;29.13;15.60;;;;;;;;;;6217655;28;20077;-72
2023/12/11 01:54:19;;;;;;;50.13;22.85;;;;;;;;;;6216577;28;20053;-73
2023/12/11 01:57:21;;;;;;;27.45;17.70;;;;;;;;;;6220391;28;20132;-72
2023/12/11 02:00:24;;;;;;;36.72;19.73;;;;;;;;;;6209925;28;20243;-72
2023/12/11 02:03:26;;;;;;;32.58;16.00;;;;;;;;;;6213760;28;20055;-73
2023/12/11 02:06:28;;;;;;;34.20;17.55;;;;;;;;;;6233469;28;20049;-73
2023/12/11 02:09:31;;;;;;;33.10;18.02;;;;;;;;;;6232345;28;20050;-73
2023/12/11 02:12:33;;;;;;;31.23;17.42;;;;;;;;;;6212303;28;20110;-74
2023/12/11 02:15:46;;;;;;;27.05;16.17;;;;;;;;;;6220324;28;20065;-73
2023/12/11 02:18:48;;;;;;;27.75;16.20;;;;;;;;;;6217366;28;20054;-74
2023/12/11 02:21:52;;;;;;;26.88;15.00;;;;;;;;;;6231696;28;20053;-74
2023/12/11 02:25:00;;;;;;;28.85;17.50;;;;;;;;;;6217415;28;20049;-74
2023/12/11 02:28:04;;;;;;;23.67;13.32;;;;;;;;;;6231921;28;20560;-74
2023/12/11 02:31:06;;;;;;;24.15;14.48;;;;;;;;;;6196741;28;20554;-74
2023/12/11 02:34:09;;;;;;;24.25;14.02;;;;;;;;;;6230605;28;20049;-74
2023/12/11 02:37:11;;;;;;;26.88;17.00;;;;;;;;;;6219152;28;20654;-74
2023/12/11 02:40:13;;;;;;;29.42;14.75;;;;;;;;;;6200852;28;20050;-74
2023/12/11 02:43:15;;;;;;;29.10;15.55;;;;;;;;;;6210369;28;20060;-73
2023/12/11 02:46:18;;;;;;;31.23;17.00;;;;;;;;;;6225405;28;20052;-74
2023/12/11 02:49:20;;;;;;;27.90;14.63;;;;;;;;;;6231826;28;20784;-74
2023/12/11 02:52:23;;;;;;;28.08;14.00;;;;;;;;;;6222250;28;20100;-74
2023/12/11 02:55:25;;;;;;;27.63;13.85;;;;;;;;;;6215597;28;20045;-74
2023/12/11 02:58:27;;;;;;;25.02;13.52;;;;;;;;;;6232729;28;20080;-74
2023/12/11 03:01:29;;;;;;;16.30;9.43;;;;;;;;;;6221692;28;20607;-74
2023/12/11 03:04:32;;;;;;;18.30;10.23;;;;;;;;;;6230173;28;20088;-74
2023/12/11 03:07:34;;;;;;;18.20;12.25;;;;;;;;;;6201743;28;20542;-74
2023/12/11 03:10:36;;;;;;;23.83;11.55;;;;;;;;;;6227348;28;20060;-74
2023/12/11 03:13:38;;;;;;;18.63;11.05;;;;;;;;;;6196073;28;20050;-74
2023/12/11 03:16:42;;;;;;;16.48;8.70;;;;;;;;;;6233792;28;20084;-74
2023/12/11 03:19:44;;;;;;;19.63;10.27;;;;;;;;;;6215402;28;20196;-74
2023/12/11 03:22:47;;;;;;;19.02;10.57;;;;;;;;;;6207271;28;20060;-74
2023/12/11 03:25:49;;;;;;;15.50;9.55;;;;;;;;;;6238262;28;20045;-74
2023/12/11 03:28:51;;;;;;;16.65;10.13;;;;;;;;;;6216362;28;20511;-74
2023/12/11 03:31:53;;;;;;;16.70;10.80;;;;;;;;;;6231750;28;20163;-74
2023/12/11 03:34:55;;;;;;;18.55;10.20;;;;;;;;;;6209136;28;20042;-75
2023/12/11 03:37:58;;;;;;;26.27;14.20;;;;;;;;;;6230965;28;20038;-74
2023/12/11 03:41:00;;;;;;;21.48;13.75;;;;;;;;;;6222274;28;20045;-74
2023/12/11 03:44:02;;;;;;;32.80;17.42;;;;;;;;;;6225488;28;20065;-74
2023/12/11 03:47:04;;;;;;;28.52;14.52;;;;;;;;;;6237407;28;20038;-74
2023/12/11 03:50:07;;;;;;;22.88;11.70;;;;;;;;;;6216974;28;20052;-74
2023/12/11 03:53:10;;;;;;;27.58;15.73;;;;;;;;;;6218226;28;20050;-74
2023/12/11 03:56:13;;;;;;;21.88;12.77;;;;;;;;;;6218082;28;20057;-74
2023/12/11 03:59:15;;;;;;;21.67;12.07;;;;;;;;;;6231054;28;20045;-74
2023/12/11 04:02:17;;;;;;;21.42;13.18;;;;;;;;;;6216602;28;20113;-74
2023/12/11 04:05:19;;;;;;;23.17;12.77;;;;;;;;;;6229612;28;20033;-74
2023/12/11 04:08:21;;;;;;;22.75;13.90;;;;;;;;;;6230798;28;20046;-74
2023/12/11 04:11:23;;;;;;;26.33;13.63;;;;;;;;;;6239362;28;20095;-74
2023/12/11 04:14:26;;;;;;;59.50;29.25;;;;;;;;;;6204519;28;20057;-74
2023/12/11 04:17:28;;;;;;;54.92;27.98;;;;;;;;;;6198554;28;20115;-74
2023/12/11 04:20:31;;;;;;;29.35;16.25;;;;;;;;;;6210863;28;20046;-74
2023/12/11 04:23:33;;;;;;;30.08;16.02;;;;;;;;;;6212663;28;20520;-75
2023/12/11 04:26:35;;;;;;;26.95;14.82;;;;;;;;;;6203567;28;20054;-75
2023/12/11 04:29:37;;;;;;;26.50;11.75;;;;;;;;;;6214232;28;20114;-74
2023/12/11 04:32:39;;;;;;;24.10;14.27;;;;;;;;;;6222532;28;20049;-74
2023/12/11 04:35:42;;;;;;;25.58;13.15;;;;;;;;;;6215520;28;20529;-74
2023/12/11 04:38:44;;;;;;;22.48;11.60;;;;;;;;;;6217239;28;20052;-74
2023/12/11 04:41:46;;;;;;;24.00;13.45;;;;;;;;;;6193377;28;20053;-75
2023/12/11 04:44:48;;;;;;;21.83;12.35;;;;;;;;;;6179396;28;20048;-75
2023/12/11 04:47:50;;;;;;;18.95;10.75;;;;;;;;;;6215981;28;20454;-74
2023/12/11 04:50:53;;;;;;;24.52;14.43;;;;;;;;;;6209541;28;20941;-73
2023/12/11 04:53:55;;;;;;;24.40;14.30;;;;;;;;;;6185974;28;20133;-73
2023/12/11 04:56:57;;;;;;;25.38;14.43;;;;;;;;;;6192904;28;20099;-73
2023/12/11 04:59:59;;;;;;;21.13;12.35;;;;;;;;;;6193265;28;20041;-73
2023/12/11 05:03:01;;;;;;;21.48;14.05;;;;;;;;;;6186154;28;20050;-74
2023/12/11 05:06:03;;;;;;;26.92;15.88;;;;;;;;;;6185753;28;20046;-74
2023/12/11 05:09:06;;;;;;;23.63;14.88;;;;;;;;;;6211922;28;20049;-74
2023/12/11 05:12:08;;;;;;;25.77;15.73;;;;;;;;;;6215341;28;20041;-75
2023/12/11 05:15:10;;;;;;;27.00;14.85;;;;;;;;;;6222006;28;20055;-74
2023/12/11 05:18:13;;;;;;;20.38;14.15;;;;;;;;;;6230533;28;20041;-74
2023/12/11 05:21:15;;;;;;;24.80;12.57;;;;;;;;;;6231688;28;20095;-73
2023/12/11 05:24:17;;;;;;;22.35;11.77;;;;;;;;;;6227442;28;20986;-73
2023/12/11 05:27:20;;;;;;;38.70;18.90;;;;;;;;;;6218926;28;20045;-73
2023/12/11 05:30:34;;;;;;;29.27;15.85;;;;;;;;;;6218420;28;20080;-75
2023/12/11 05:33:36;;;;;;;21.27;14.70;;;;;;;;;;6227077;28;20103;-73
2023/12/11 05:36:38;;;;;;;26.52;13.80;;;;;;;;;;6232311;28;20612;-74
2023/12/11 05:39:41;;;;;;;34.42;17.52;;;;;;;;;;6232517;28;20120;-75
2023/12/11 05:42:58;;;;;;;34.10;18.48;;;;;;;;;;6217238;28;20052;-73
2023/12/11 05:46:00;;;;;;;45.25;23.23;;;;;;;;;;6219264;28;20038;-73
2023/12/11 05:49:02;;;;;;;89.18;37.95;;;;;;;;;;6218980;28;20124;-73
2023/12/11 05:52:05;;;;;;;60.03;28.80;;;;;;;;;;6199129;28;20148;-72
2023/12/11 05:55:07;;;;;;;84.78;43.58;;;;;;;;;;6239271;28;20510;-72
2023/12/11 05:58:09;;;;;;;61.38;32.55;;;;;;;;;;6220531;28;20052;-72
2023/12/11 06:01:11;;;;;;;63.00;33.42;;;;;;;;;;6230893;28;20056;-72
2023/12/11 06:04:14;;;;;;;61.25;31.55;;;;;;;;;;6238209;28;20053;-73
2023/12/11 06:07:16;;;;;;;55.00;28.02;;;;;;;;;;6214245;28;20048;-73
2023/12/11 06:10:18;;;;;;;68.70;36.17;;;;;;;;;;6217743;28;20056;-73
2023/12/11 06:13:20;;;;;;;70.60;32.10;;;;;;;;;;6231666;28;20072;-73
2023/12/11 06:16:22;;;;;;;56.03;26.05;;;;;;;;;;6231435;28;20076;-73
2023/12/11 06:19:24;;;;;;;42.85;22.48;;;;;;;;;;6224440;28;20034;-73
2023/12/11 06:22:27;;;;;;;41.33;22.90;;;;;;;;;;6207564;28;20077;-73
2023/12/11 06:25:29;;;;;;;39.42;22.48;;;;;;;;;;6227758;28;20188;-73
2023/12/11 06:28:31;;;;;;;43.72;23.02;;;;;;;;;;6226453;28;20057;-72
2023/12/11 06:31:34;;;;;;;24.70;16.20;;;;;;;;;;6235248;28;20771;-73
2023/12/11 06:34:37;;;;;;;25.80;16.52;;;;;;;;;;6223314;28;20053;-72
2023/12/11 06:37:40;;;;;;;24.95;12.80;;;;;;;;;;6235415;28;20139;-72
2023/12/11 06:40:42;;;;;;;19.80;12.00;;;;;;;;;;6231919;28;20034;-72
2023/12/11 06:43:48;;;;;;;21.15;11.70;;;;;;;;;;6215306;28;20497;-72
2023/12/11 06:46:52;;;;;;;25.00;13.98;;;;;;;;;;6227181;28;20096;-72
2023/12/11 06:49:55;;;;;;;21.17;12.90;;;;;;;;;;6230480;28;20669;-72
2023/12/11 06:52:57;;;;;;;21.38;11.95;;;;;;;;;;6235680;28;20053;-72
2023/12/11 06:55:59;;;;;;;18.95;11.80;;;;;;;;;;6225382;28;20053;-72
2023/12/11 06:59:01;;;;;;;17.55;10.65;;;;;;;;;;6212662;28;20038;-73
2023/12/11 07:02:04;;;;;;;17.10;11.48;;;;;;;;;;6225491;28;20049;-72
2023/12/11 07:05:07;;;;;;;20.85;13.10;;;;;;;;;;6235044;28;20041;-72
2023/12/11 07:08:10;;;;;;;19.48;11.50;;;;;;;;;;6232635;28;20049;-72
2023/12/11 07:11:12;;;;;;;18.48;10.73;;;;;;;;;;6231492;28;20042;-72
2023/12/11 07:14:14;;;;;;;15.48;9.65;;;;;;;;;;6190379;28;20041;-72
2023/12/11 07:17:16;;;;;;;20.50;10.38;;;;;;;;;;6226275;28;20037;-72
2023/12/11 07:20:19;;;;;;;12.40;8.45;;;;;;;;;;6224614;28;20041;-72
2023/12/11 07:23:22;;;;;;;23.38;10.57;;;;;;;;;;6232077;28;20489;-72
2023/12/11 07:26:24;;;;;;;11.02;7.80;;;;;;;;;;6229477;28;20089;-73
2023/12/11 07:29:26;;;;;;;20.80;10.63;;;;;;;;;;6230157;28;20128;-72
2023/12/11 07:32:28;;;;;;;17.65;10.18;;;;;;;;;;6227180;28;20056;-72
2023/12/11 07:35:31;;;;;;;14.95;9.75;;;;;;;;;;6210724;28;20517;-72
2023/12/11 07:38:33;;;;;;;17.50;9.85;;;;;;;;;;6214598;28;20762;-73
2023/12/11 07:41:35;;;;;;;15.93;10.32;;;;;;;;;;6211851;28;20053;-72
2023/12/11 07:44:37;;;;;;;19.75;10.48;;;;;;;;;;6210130;28;20515;-72
2023/12/11 07:47:39;;;;;;;22.15;11.40;;;;;;;;;;6223009;28;20054;-72
2023/12/11 07:50:41;;;;;;;18.92;10.57;;;;;;;;;;6219997;28;20107;-73
2023/12/11 07:53:44;;;;;;;25.73;13.55;;;;;;;;;;6213899;28;20057;-73
2023/12/11 07:56:47;;;;;;;21.42;11.35;;;;;;;;;;6210187;28;20537;-72
2023/12/11 07:59:50;;;;;;;30.48;18.92;;;;;;;;;;6213184;28;20621;-73
2023/12/11 08:02:52;;;;;;;27.38;15.27;;;;;;;;;;6226934;28;20061;-73
2023/12/11 08:05:55;;;;;;;23.75;13.85;;;;;;;;;;6173290;28;20057;-73
2023/12/11 08:09:00;;;;;;;21.02;13.82;;;;;;;;;;6234339;28;20522;-72
2023/12/11 08:12:02;;;;;;;17.88;12.27;;;;;;;;;;6232397;28;20052;-73
2023/12/11 08:15:05;;;;;;;21.58;13.25;;;;;;;;;;6217202;28;20088;-73
2023/12/11 08:18:07;;;;;;;23.70;13.48;;;;;;;;;;6232671;28;20060;-73
2023/12/11 08:21:10;;;;;;;23.63;12.77;;;;;;;;;;6194847;28;20042;-73
2023/12/11 08:24:12;;;;;;;27.05;12.85;;;;;;;;;;6203990;28;20091;-73
2023/12/11 08:27:16;;;;;;;22.83;15.30;;;;;;;;;;6228379;28;20049;-73
2023/12/11 08:30:19;;;;;;;29.90;17.60;;;;;;;;;;6241528;28;20041;-73
2023/12/11 08:33:21;;;;;;;18.30;10.43;;;;;;;;;;6211220;28;20041;-73
2023/12/11 08:36:23;;;;;;;19.95;12.07;;;;;;;;;;6235936;28;20049;-72
2023/12/11 08:39:25;;;;;;;20.77;11.25;;;;;;;;;;6232818;28;20118;-73
2023/12/11 08:42:27;;;;;;;16.33;9.35;;;;;;;;;;6227985;28;20053;-73
2023/12/11 08:45:30;;;;;;;23.88;12.25;;;;;;;;;;6197718;28;20104;-73
2023/12/11 08:48:33;;;;;;;16.08;10.32;;;;;;;;;;6208819;28;20038;-74
2023/12/11 08:51:35;;;;;;;13.57;8.98;;;;;;;;;;6213073;28;20166;-73
2023/12/11 08:54:37;;;;;;;14.35;8.55;;;;;;;;;;6215004;28;20038;-72
2023/12/11 08:57:42;;;;;;;12.48;7.78;;;;;;;;;;6234515;28;20325;-73
2023/12/11 09:00:44;;;;;;;14.48;8.25;;;;;;;;;;6215046;28;20413;-72
2023/12/11 09:03:47;;;;;;;16.15;8.50;;;;;;;;;;6216774;28;20048;-73
2023/12/11 09:06:49;;;;;;;13.75;8.35;;;;;;;;;;6212777;28;20100;-73
2023/12/11 09:09:51;;;;;;;16.13;8.02;;;;;;;;;;6234222;28;20456;-73
2023/12/11 09:12:54;;;;;;;12.70;7.65;;;;;;;;;;6230461;28;20041;-72
2023/12/11 09:15:56;;;;;;;11.02;5.32;;;;;;;;;;6233725;28;20619;-73
2023/12/11 09:18:59;;;;;;;12.70;7.10;;;;;;;;;;6234415;28;20045;-73
2023/12/11 09:22:01;;;;;;;16.50;8.48;;;;;;;;;;6212398;28;20052;-73
2023/12/11 09:25:04;;;;;;;11.75;6.68;;;;;;;;;;6202550;28;20079;-73
2023/12/11 09:28:06;;;;;;;10.95;5.07;;;;;;;;;;6201830;28;20060;-74
2023/12/11 09:31:09;;;;;;;7.07;4.90;;;;;;;;;;6214899;28;20136;-73
2023/12/11 09:34:11;;;;;;;10.60;5.78;;;;;;;;;;6213900;28;20042;-72
2023/12/11 09:37:15;;;;;;;10.25;5.97;;;;;;;;;;6215957;28;20910;-73
2023/12/11 09:40:18;;;;;;;8.73;4.45;;;;;;;;;;6226824;28;20034;-73
2023/12/11 09:43:20;;;;;;;8.63;5.35;;;;;;;;;;6232880;28;20546;-74
2023/12/11 09:46:24;;;;;;;10.30;6.45;;;;;;;;;;6200361;28;20527;-72
2023/12/11 09:49:26;;;;;;;12.00;8.18;;;;;;;;;;6213717;28;20042;-73
2023/12/11 09:52:30;;;;;;;14.85;8.18;;;;;;;;;;6212639;28;20562;-73
2023/12/11 09:55:35;;;;;;;9.70;6.65;;;;;;;;;;6230860;28;20052;-72
2023/12/11 09:58:37;;;;;;;9.40;5.95;;;;;;;;;;6233888;28;20041;-73
2023/12/11 10:01:39;;;;;;;9.27;7.18;;;;;;;;;;6195970;28;21419;-73
2023/12/11 10:05:04;;;;;;;10.65;5.68;;;;;;;;;;6209732;28;20068;-73
2023/12/11 10:08:06;;;;;;;11.43;5.85;;;;;;;;;;6199230;28;20115;-73
2023/12/11 10:11:09;;;;;;;10.70;8.73;;;;;;;;;;6193562;28;20724;-72
2023/12/11 10:14:12;;;;;;;12.15;7.47;;;;;;;;;;6233062;28;20168;-73
2023/12/11 10:17:15;;;;;;;14.20;6.25;;;;;;;;;;6231344;28;20040;-73
2023/12/11 10:20:18;;;;;;;6.90;5.03;;;;;;;;;;6210014;28;20152;-73
2023/12/11 10:23:22;;;;;;;9.90;6.80;;;;;;;;;;6223167;28;20052;-72
2023/12/11 10:26:24;;;;;;;10.68;5.78;;;;;;;;;;6227617;28;20251;-72
2023/12/11 10:29:30;;;;;;;7.30;4.05;;;;;;;;;;6216935;28;20533;-72
2023/12/11 10:32:32;;;;;;;11.02;4.88;;;;;;;;;;6230361;28;20126;-75
2023/12/11 10:35:35;;;;;;;5.03;3.80;;;;;;;;;;6201679;28;20734;-73
2023/12/11 10:38:37;;;;;;;9.77;5.95;;;;;;;;;;6215554;28;20722;-74
2023/12/11 10:41:40;;;;;;;13.63;5.43;;;;;;;;;;6226697;28;20132;-75
2023/12/11 10:44:42;;;;;;;10.80;4.57;;;;;;;;;;6196298;28;20072;-75
2023/12/11 10:47:55;;;;;;;11.40;5.90;;;;;;;;;;6214598;28;20785;-74
2023/12/11 10:50:58;;;;;;;11.07;4.72;;;;;;;;;;6196758;28;20565;-73
2023/12/11 10:54:00;;;;;;;8.65;4.05;;;;;;;;;;6200076;28;20045;-73
2023/12/11 10:57:02;;;;;;;6.15;2.97;;;;;;;;;;6215201;28;20794;-73
2023/12/11 11:00:06;;;;;;;10.35;5.45;;;;;;;;;;6195810;28;20045;-73
2023/12/11 11:03:10;;;;;;;5.78;3.22;;;;;;;;;;6210368;28;20049;-73
2023/12/11 11:06:13;;;;;;;6.95;3.40;;;;;;;;;;6211739;28;20409;-73
2023/12/11 11:09:24;;;;;;;5.75;2.58;;;;;;;;;;6214362;28;20137;-73
2023/12/11 11:12:49;;;;;;;6.75;4.00;;;;;;;;;;6211441;28;20048;-73
2023/12/11 11:15:54;;;;;;;5.90;3.47;;;;;;;;;;6229517;28;20041;-72
2023/12/11 11:19:04;;;;;;;7.13;3.65;;;;;;;;;;6194640;28;20060;-73
2023/12/11 11:22:10;;;;;;;8.23;2.95;;;;;;;;;;6215141;28;20061;-72
2023/12/11 11:25:33;;;;;;;4.82;2.80;;;;;;;;;;6217030;28;20183;-73
2023/12/11 11:28:44;;;;;;;7.53;3.53;;;;;;;;;;6222420;28;20049;-73
2023/12/11 11:31:49;;;;;;;6.57;2.65;;;;;;;;;;6192179;28;20045;-74
2023/12/11 11:34:51;;;;;;;9.98;4.90;;;;;;;;;;6195446;28;20137;-74
2023/12/11 11:37:54;;;;;;;9.10;4.13;;;;;;;;;;6235829;28;20049;-74
2023/12/11 11:40:56;;;;;;;3.90;2.78;;;;;;;;;;6196168;28;20853;-77
2023/12/11 11:44:06;;;;;;;5.47;2.45;;;;;;;;;;6202233;28;20076;-74
2023/12/11 11:47:08;;;;;;;17.83;12.07;;;;;;;;;;6229082;28;20049;-74
2023/12/11 11:50:13;;;;;;;7.80;3.50;;;;;;;;;;6220178;28;20057;-74
2023/12/11 11:53:17;;;;;;;7.20;2.30;;;;;;;;;;6214082;28;20042;-74
2023/12/11 11:56:19;;;;;;;39.00;15.80;;;;;;;;;;6231521;28;20162;-73
2023/12/11 11:59:21;;;;;;;7.45;3.80;;;;;;;;;;6231842;28;20123;-73
2023/12/11 12:02:24;;;;;;;7.45;3.08;;;;;;;;;;6227000;28;20064;-73
2023/12/11 12:05:26;;;;;;;5.63;2.80;;;;;;;;;;6237666;28;20085;-73
2023/12/11 12:08:28;;;;;;;4.72;2.53;;;;;;;;;;6221785;28;20053;-74
2023/12/11 12:11:33;;;;;;;5.63;3.28;;;;;;;;;;6204934;28;20514;-74
2023/12/11 12:14:36;;;;;;;7.45;3.22;;;;;;;;;;6207993;28;20068;-74
2023/12/11 12:17:38;;;;;;;18.10;9.88;;;;;;;;;;6174121;28;20050;-74
2023/12/11 12:20:41;;;;;;;26.77;12.93;;;;;;;;;;6167266;28;20049;-74
2023/12/11 12:23:43;;;;;;;7.03;3.80;;;;;;;;;;6211338;28;20054;-74
2023/12/11 12:26:49;;;;;;;12.60;7.10;;;;;;;;;;6211858;28;20053;-74
2023/12/11 12:29:51;;;;;;;5.82;2.70;;;;;;;;;;6203090;28;20132;-73
2023/12/11 12:32:54;;;;;;;11.98;4.50;;;;;;;;;;6185612;28;20058;-73
2023/12/11 12:35:57;;;;;;;12.38;6.47;;;;;;;;;;6216074;28;20073;-73
2023/12/11 12:38:59;;;;;;;8.23;4.97;;;;;;;;;;6210691;28;20072;-73
2023/12/11 12:42:02;;;;;;;6.10;3.38;;;;;;;;;;6201003;28;20069;-73
2023/12/11 12:45:05;;;;;;;11.00;5.70;;;;;;;;;;6197595;28;20056;-73
2023/12/11 12:48:08;;;;;;;8.57;4.38;;;;;;;;;;6216930;28;20506;-74
2023/12/11 12:51:11;;;;;;;8.80;4.15;;;;;;;;;;6198036;28;20045;-74
2023/12/11 12:54:14;;;;;;;9.30;3.55;;;;;;;;;;6208172;28;20046;-73
2023/12/11 12:57:17;;;;;;;11.98;6.38;;;;;;;;;;6181697;28;20145;-73
2023/12/11 13:00:20;;;;;;;12.50;6.18;;;;;;;;;;6196990;28;20046;-73
2023/12/11 13:03:23;;;;;;;37.10;17.77;;;;;;;;;;6208710;28;20053;-73
2023/12/11 13:06:26;;;;;;;8.10;5.10;;;;;;;;;;6180177;28;20050;-74
2023/12/11 13:09:30;;;;;;;23.95;11.15;;;;;;;;;;6196794;28;20069;-74
2023/12/11 13:12:32;;;;;;;24.98;9.25;;;;;;;;;;6193310;28;20042;-75
2023/12/11 13:15:35;;;;;;;26.02;12.63;;;;;;;;;;6195956;28;20133;-74
2023/12/11 13:18:37;;;;;;;18.92;7.15;;;;;;;;;;6213142;28;20077;-74
2023/12/11 13:21:41;;;;;;;8.20;4.07;;;;;;;;;;6198782;28;20045;-74
2023/12/11 13:24:43;;;;;;;7.28;5.25;;;;;;;;;;6198698;28;20073;-74
2023/12/11 13:27:46;;;;;;;6.55;3.08;;;;;;;;;;6202725;28;20163;-74
2023/12/11 13:30:49;;;;;;;13.70;6.63;;;;;;;;;;6215462;28;20049;-74
2023/12/11 13:33:52;;;;;;;7.47;3.22;;;;;;;;;;6217374;28;20040;-74
2023/12/11 13:36:54;;;;;;;10.68;4.47;;;;;;;;;;6187496;28;20521;-74
2023/12/11 13:39:57;;;;;;;5.70;3.08;;;;;;;;;;6213510;28;20873;-74
2023/12/11 13:42:59;;;;;;;7.25;4.03;;;;;;;;;;6191063;28;20116;-74
2023/12/11 13:46:04;;;;;;;9.75;6.70;;;;;;;;;;6221842;28;20073;-74
2023/12/11 13:49:06;;;;;;;47.08;18.13;;;;;;;;;;6214554;28;20520;-74
2023/12/11 13:52:09;;;;;;;30.25;16.45;;;;;;;;;;6192667;28;20045;-74
2023/12/11 13:55:11;;;;;;;15.80;9.25;;;;;;;;;;6171427;28;20138;-74
2023/12/11 13:58:14;;;;;;;20.40;10.73;;;;;;;;;;6215992;28;20053;-73
2023/12/11 14:01:16;;;;;;;15.55;9.45;;;;;;;;;;6197003;28;20067;-73
2023/12/11 14:04:18;;;;;;;22.33;12.88;;;;;;;;;;6199740;28;20045;-73
2023/12/11 14:07:20;;;;;;;70.57;32.78;;;;;;;;;;6179195;28;20507;-73
2023/12/11 14:10:23;;;;;;;64.03;29.13;;;;;;;;;;6187898;28;20041;-74
2023/12/11 14:13:27;;;;;;;45.78;24.10;;;;;;;;;;6174917;28;20496;-72
2023/12/11 14:16:30;;;;;;;54.13;31.08;;;;;;;;;;6213056;28;20042;-73
2023/12/11 14:19:34;;;;;;;54.30;26.27;;;;;;;;;;6186792;28;20050;-73
2023/12/11 14:22:37;;;;;;;16.90;9.82;;;;;;;;;;6192420;28;20049;-74
2023/12/11 14:25:39;;;;;;;13.55;6.65;;;;;;;;;;6212134;28;20044;-74
2023/12/11 14:28:42;;;;;;;15.07;5.72;;;;;;;;;;6190286;28;20741;-74
2023/12/11 14:31:45;;;;;;;9.98;6.90;;;;;;;;;;6193270;28;20050;-73
2023/12/11 14:34:48;;;;;;;11.65;6.78;;;;;;;;;;6215885;28;20048;-74
2023/12/11 14:37:50;;;;;;;16.20;8.68;;;;;;;;;;6196053;28;20053;-74
2023/12/11 14:40:52;;;;;;;14.32;7.32;;;;;;;;;;6180168;28;20038;-73
2023/12/11 14:43:54;;;;;;;10.60;6.68;;;;;;;;;;6190581;28;20060;-73
2023/12/11 14:46:56;;;;;;;13.88;4.30;;;;;;;;;;6206984;28;20053;-73
2023/12/11 14:49:58;;;;;;;10.75;5.68;;;;;;;;;;6217640;28;20053;-73
2023/12/11 14:53:02;;;;;;;20.27;9.32;;;;;;;;;;6191848;28;20075;-73
2023/12/11 14:56:06;;;;;;;21.27;9.40;;;;;;;;;;6191008;28;20080;-73
2023/12/11 14:59:09;;;;;;;23.20;10.38;;;;;;;;;;6192256;28;20053;-73
2023/12/11 15:02:12;;;;;;;27.95;12.35;;;;;;;;;;6208309;28;20052;-74
2023/12/11 15:05:15;;;;;;;23.70;12.48;;;;;;;;;;6185478;28;20050;-74
2023/12/11 15:08:19;;;;;;;42.25;20.42;;;;;;;;;;6190405;28;20798;-74
2023/12/11 15:11:22;;;;;;;52.10;26.80;;;;;;;;;;6216895;28;20045;-74
2023/12/11 15:14:27;;;;;;;32.17;16.38;;;;;;;;;;6159245;28;20088;-74
2023/12/11 15:17:29;;;;;;;31.33;16.17;;;;;;;;;;6208343;28;20045;-74
2023/12/11 15:20:33;;;;;;;25.60;13.10;;;;;;;;;;6209170;28;20060;-74
2023/12/11 15:23:35;;;;;;;16.88;11.25;;;;;;;;;;6203266;28;20132;-74
2023/12/11 15:26:41;;;;;;;13.73;8.77;;;;;;;;;;6189049;28;20135;-73
2023/12/11 15:29:43;;;;;;;13.73;7.95;;;;;;;;;;6175397;28;20058;-75
2023/12/11 15:32:47;;;;;;;18.55;7.70;;;;;;;;;;6185118;28;20053;-74
2023/12/11 15:35:50;;;;;;;15.40;7.85;;;;;;;;;;6174936;28;20050;-74
2023/12/11 15:38:55;;;;;;;20.27;10.25;;;;;;;;;;6196082;28;20297;-73
2023/12/11 15:41:57;;;;;;;20.33;12.73;;;;;;;;;;6199316;28;20042;-74
2023/12/11 15:44:59;;;;;;;33.83;22.88;;;;;;;;;;6206071;28;20125;-74
2023/12/11 15:48:02;;;;;;;16.58;11.70;;;;;;;;;;6179746;28;20051;-74
2023/12/11 15:51:14;;;;;;;18.08;11.55;;;;;;;;;;6201839;28;20055;-74
2023/12/11 15:54:16;;;;;;;16.08;7.80;;;;;;;;;;6178901;28;20100;-75
2023/12/11 15:57:18;;;;;;;19.73;8.43;;;;;;;;;;6207254;28;20522;-73
2023/12/11 16:00:21;;;;;;;14.20;6.90;;;;;;;;;;6169419;28;20216;-72
2023/12/11 16:03:23;;;;;;;19.02;8.05;;;;;;;;;;6207572;28;20181;-74
2023/12/11 16:06:25;;;;;;;16.40;8.77;;;;;;;;;;6206288;28;20034;-74
2023/12/11 16:09:27;;;;;;;26.45;11.27;;;;;;;;;;6184640;28;20058;-74
2023/12/11 16:12:31;;;;;;;20.55;11.00;;;;;;;;;;6199019;28;20039;-73
2023/12/11 16:15:33;;;;;;;24.67;11.15;;;;;;;;;;6223629;28;20046;-73
2023/12/11 16:18:35;;;;;;;41.65;19.98;;;;;;;;;;6197078;28;20056;-73
2023/12/11 16:21:38;;;;;;;37.50;18.83;;;;;;;;;;6212259;28;20494;-73
2023/12/11 16:24:40;;;;;;;27.58;17.08;;;;;;;;;;6212379;28;20114;-72
2023/12/11 16:27:42;;;;;;;21.25;12.15;;;;;;;;;;6230616;28;20624;-74
2023/12/11 16:30:44;;;;;;;20.48;11.23;;;;;;;;;;6233332;28;20052;-73
2023/12/11 16:33:46;;;;;;;32.20;22.88;;;;;;;;;;6219988;28;20048;-72
2023/12/11 16:36:49;;;;;;;29.85;17.48;;;;;;;;;;6219164;28;20092;-73
2023/12/11 16:39:51;;;;;;;20.45;8.93;;;;;;;;;;6229193;28;20056;-73
2023/12/11 16:42:53;;;;;;;20.70;10.48;;;;;;;;;;6204213;28;20049;-73
2023/12/11 16:45:57;;;;;;;57.33;26.83;;;;;;;;;;6195937;28;20137;-73
2023/12/11 16:48:59;;;;;;;26.92;15.98;;;;;;;;;;6215213;28;20049;-74
2023/12/11 16:52:02;;;;;;;34.78;15.63;;;;;;;;;;6227970;28;20054;-73
2023/12/11 16:55:06;;;;;;;21.35;10.80;;;;;;;;;;6218970;28;20199;-74
2023/12/11 16:58:08;;;;;;;19.23;10.73;;;;;;;;;;6226525;28;20034;-74
2023/12/11 17:01:13;;;;;;;23.95;13.00;;;;;;;;;;6230218;28;20538;-74
2023/12/11 17:04:16;;;;;;;48.38;26.98;;;;;;;;;;6227812;28;20045;-73
2023/12/11 17:07:18;;;;;;;33.17;19.55;;;;;;;;;;6233540;28;20450;-74
2023/12/11 17:10:23;;;;;;;33.90;19.40;;;;;;;;;;6233722;28;20045;-74
2023/12/11 17:13:25;;;;;;;32.45;18.92;;;;;;;;;;6204596;28;20061;-74
2023/12/11 17:16:29;;;;;;;17.35;10.48;;;;;;;;;;6211146;28;20523;-74
2023/12/11 17:19:31;;;;;;;33.70;16.48;;;;;;;;;;6225493;28;20053;-74
2023/12/11 17:22:33;;;;;;;33.13;17.45;;;;;;;;;;6219066;28;20038;-74
2023/12/11 17:25:36;;;;;;;26.88;15.18;;;;;;;;;;6194858;28;20054;-72
2023/12/11 17:28:38;;;;;;;23.17;13.80;;;;;;;;;;6204417;28;20049;-73
2023/12/11 17:31:40;;;;;;;20.92;12.82;;;;;;;;;;6207032;28;20069;-72
2023/12/11 17:34:45;;;;;;;37.50;21.38;;;;;;;;;;6233295;28;20049;-73
2023/12/11 17:37:49;;;;;;;36.83;20.55;;;;;;;;;;6212462;28;20875;-74
2023/12/11 17:40:53;;;;;;;23.33;10.93;;;;;;;;;;6216093;28;20046;-73
2023/12/11 17:43:55;;;;;;;22.75;12.93;;;;;;;;;;6228194;28;20045;-74
2023/12/11 17:46:57;;;;;;;28.55;13.85;;;;;;;;;;6219052;28;20045;-75
2023/12/11 17:49:59;;;;;;;21.30;9.65;;;;;;;;;;6209611;28;20526;-74
2023/12/11 17:53:02;;;;;;;17.02;9.70;;;;;;;;;;6224688;28;20045;-73